Holly Springs, NC (27540)

6:27 AM EST on December 07, 2016 (GMT -0500)
Main St Holly Springs | | Change Station

Elev 433 ft 35.65 °N, 78.83 °W | Updated 8 seconds ago

Clear
Clear
39.4 °F
Feels Like 39 °F
N
0.0
Wind Variable Wind from West
Gusts 2.0 mph

Today
High -- | Low -- °F
--% Chance of Precip.
Yesterday
High -- | Low -- °F
Precip. -- in
Pressure 30.00 in
Visibility 3.0 miles
Clouds Clear
Windchill 39 °F
Dew Point 38 °F
Humidity 96%
Rainfall 0.00 in
Snow Depth Not available.
7:12 AM 5:01 PM
First Quarter, 51% visible
METAR KTTA 071105Z AUTO 00000KT 3SM BR CLR 00/00 A3000 RMK AO2 T00000000
Pressure 30.00 in
Visibility 3.0 miles
Clouds Clear
Windchill 39 °F
Dew Point 38 °F
Humidity 96%
Rainfall 0.00 in
Snow Depth Not available.
7:12 AM 5:01 PM
First Quarter, 51% visible
METAR KTTA 071105Z AUTO 00000KT 3SM BR CLR 00/00 A3000 RMK AO2 T00000000

10-Day Weather Forecast

Almanac

Astronomy

Dec. 07, 2016 Rise Set
Actual Time
Civil Twilight
Nautical Twilight
Astronomical Twilight
Moon
Length of Visible Light
Length of Day
Tomorrow will be .
, % of the Moon is Illuminated

Today's Extremes

State Highs State Lows

Community

WunderPhotos

Upload Photos

1,956,111 photos uploaded!

WunderBlog® & News

Nearby

Air Quality

  Air Quality AQ Index Pollutant
Not available.

Snow Depth

Station Depth Elevation

Earthquake Activity

City Distance Mag. Time & Date
Minimum magnitude displayed is 2.5.

Coastal Water Temperatures

Place Temperature

Stations

Nearby Weather Stations

Station Location Temp. Windchill Dew Point Humidity Wind Precip. Elev Updated Type
                   

Watches & Warnings

There are currently no watches in effect.